PWSweather.com
Personal Weather Stations
Station Observations
KAZPHOEN90
RayThunderhill, Phoenix, AZ

RayThunderhillPhoenix, AZ

Lat: 33.312, Lon: -112.029

Elevation: 1260

Station Type: Davis Vantage VUE

High Low Average
Temperature 95.5°F35.3°C 77.7°F25.4°C 85.3°F29.6°C
Dew Point 67.6°F19.8°C 60.8°F16.0°C 65.0°F18.3°C
Winds 6.5 mph 10.5 kmh Calm Calm 1.0 mph SE1.6 kmh SE
Wind Gusts 15.0 mph24.1 kmh -- 2.0 mph3.2 kmh
Humidity 70% 32% 52%
Pressure 29.83 in1010.2 mb 29.70 in1005.8 mb -
Precipitation 0.00 in0.0 mm - -
Hour Temp Dew Point Humidity Winds Wind Gusts Pressure Precip Precip Rate Daily Precip Total
12:00 AM 86.3°F30.2°C 63.1°F17.3°C 46% 0.2 mph ENE0.3 kmh ENE 1.0 mph1.6 kmh 29.73 in1006.8 mb - 0.00 in0.0 mm 0.00 in0.0 mm
12:15 AM 86.1°F30.1°C 62.9°F17.2°C 46% 0.5 mph N0.8 kmh N 1.0 mph1.6 kmh 29.72 in1006.4 mb - 0.00 in0.0 mm 0.00 in0.0 mm
12:30 AM 85.7°F29.8°C 63.8°F17.7°C 48% Calm Calm -- 29.72 in1006.4 mb - 0.00 in0.0 mm 0.00 in0.0 mm
12:45 AM 85.1°F29.5°C 63.8°F17.7°C 49% Calm Calm 1.0 mph1.6 kmh 29.74 in1007.1 mb - 0.00 in0.0 mm 0.00 in0.0 mm
01:00 AM 85.0°F29.4°C 64.3°F17.9°C 50% Calm Calm -- 29.73 in1006.8 mb - 0.00 in0.0 mm 0.00 in0.0 mm
01:15 AM 85.0°F29.4°C 63.7°F17.6°C 49% Calm Calm -- 29.75 in1007.5 mb - 0.00 in0.0 mm 0.00 in0.0 mm
01:30 AM 85.0°F29.4°C 64.8°F18.2°C 51% 0.7 mph SE1.1 kmh SE 4.0 mph6.4 kmh 29.77 in1008.1 mb - 0.00 in0.0 mm 0.00 in0.0 mm
01:45 AM 84.0°F28.9°C 65.0°F18.3°C 53% 6.5 mph SE10.5 kmh SE 15.0 mph24.1 kmh 29.79 in1008.8 mb - 0.00 in0.0 mm 0.00 in0.0 mm
02:00 AM 82.0°F27.8°C 65.8°F18.8°C 58% 4.5 mph SSE7.2 kmh SSE 8.0 mph12.9 kmh 29.80 in1009.1 mb - 0.00 in0.0 mm 0.00 in0.0 mm
02:15 AM 81.8°F27.7°C 66.1°F18.9°C 59% 0.8 mph SE1.3 kmh SE 2.0 mph3.2 kmh 29.79 in1008.8 mb - 0.00 in0.0 mm 0.00 in0.0 mm
02:30 AM 81.9°F27.7°C 65.7°F18.7°C 58% 2.4 mph SSE3.9 kmh SSE 4.0 mph6.4 kmh 29.80 in1009.1 mb - 0.00 in0.0 mm 0.00 in0.0 mm
02:45 AM 81.1°F27.3°C 66.8°F19.3°C 62% 0.3 mph SE0.5 kmh SE 2.0 mph3.2 kmh 29.80 in1009.1 mb - 0.00 in0.0 mm 0.00 in0.0 mm
03:00 AM 80.4°F26.9°C 66.6°F19.2°C 63% 3.1 mph S5.0 kmh S 7.0 mph11.3 kmh 29.79 in1008.8 mb - 0.00 in0.0 mm 0.00 in0.0 mm
03:15 AM 79.6°F26.4°C 65.9°F18.8°C 63% 1.8 mph SSE2.9 kmh SSE 4.0 mph6.4 kmh 29.79 in1008.8 mb - 0.00 in0.0 mm 0.00 in0.0 mm
03:30 AM 78.9°F26.1°C 66.1°F18.9°C 65% 0.5 mph SSW0.8 kmh SSW 3.0 mph4.8 kmh 29.79 in1008.8 mb - 0.00 in0.0 mm 0.00 in0.0 mm
03:45 AM 78.5°F25.8°C 66.6°F19.2°C 67% 0.8 mph SE1.3 kmh SE 3.0 mph4.8 kmh 29.79 in1008.8 mb - 0.00 in0.0 mm 0.00 in0.0 mm
04:00 AM 78.1°F25.6°C 66.7°F19.3°C 68% 0.4 mph S0.6 kmh S 2.0 mph3.2 kmh 29.78 in1008.5 mb - 0.00 in0.0 mm 0.00 in0.0 mm
04:15 AM 77.8°F25.4°C 67.2°F19.6°C 70% Calm Calm 1.0 mph1.6 kmh 29.79 in1008.8 mb - 0.00 in0.0 mm 0.00 in0.0 mm
04:30 AM 77.7°F25.4°C 67.1°F19.5°C 70% 0.1 mph NE0.2 kmh NE 1.0 mph1.6 kmh 29.80 in1009.1 mb - 0.00 in0.0 mm 0.00 in0.0 mm
04:45 AM 77.7°F25.4°C 66.7°F19.3°C 69% Calm Calm -- 29.80 in1009.1 mb - 0.00 in0.0 mm 0.00 in0.0 mm
05:00 AM 78.0°F25.6°C 66.6°F19.2°C 68% Calm Calm -- 29.80 in1009.1 mb - 0.00 in0.0 mm 0.00 in0.0 mm
05:15 AM 78.2°F25.7°C 66.3°F19.1°C 67% Calm Calm -- 29.81 in1009.5 mb - 0.00 in0.0 mm 0.00 in0.0 mm
05:30 AM 78.5°F25.8°C 65.7°F18.7°C 65% Calm Calm -- 29.82 in1009.8 mb - 0.00 in0.0 mm 0.00 in0.0 mm
05:45 AM 79.1°F26.2°C 65.9°F18.8°C 64% 0.5 mph SE0.8 kmh SE 2.0 mph3.2 kmh 29.81 in1009.5 mb - 0.00 in0.0 mm 0.00 in0.0 mm
06:00 AM 79.4°F26.3°C 65.7°F18.7°C 63% Calm Calm 1.0 mph1.6 kmh 29.81 in1009.5 mb - 0.00 in0.0 mm 0.00 in0.0 mm
06:15 AM 79.5°F26.4°C 65.8°F18.8°C 63% Calm Calm 1.0 mph1.6 kmh 29.82 in1009.8 mb - 0.00 in0.0 mm 0.00 in0.0 mm
06:30 AM 79.7°F26.5°C 66.0°F18.9°C 63% 0.2 mph SE0.3 kmh SE 1.0 mph1.6 kmh 29.83 in1010.2 mb - 0.00 in0.0 mm 0.00 in0.0 mm
06:45 AM 79.6°F26.4°C 66.3°F19.1°C 64% Calm Calm -- 29.82 in1009.8 mb - 0.00 in0.0 mm 0.00 in0.0 mm
07:00 AM 79.6°F26.4°C 66.3°F19.1°C 64% Calm Calm -- 29.82 in1009.8 mb - 0.00 in0.0 mm 0.00 in0.0 mm
07:15 AM 80.0°F26.7°C 66.3°F19.1°C 63% Calm Calm -- 29.82 in1009.8 mb - 0.00 in0.0 mm 0.00 in0.0 mm
07:30 AM 80.7°F27.1°C 65.5°F18.6°C 60% 0.1 mph SW0.2 kmh SW -- 29.82 in1009.8 mb - 0.00 in0.0 mm 0.00 in0.0 mm
07:45 AM 81.5°F27.5°C 65.3°F18.5°C 58% Calm Calm -- 29.82 in1009.8 mb - 0.00 in0.0 mm 0.00 in0.0 mm
08:00 AM 82.3°F27.9°C 64.5°F18.1°C 55% Calm Calm -- 29.82 in1009.8 mb - 0.00 in0.0 mm 0.00 in0.0 mm
08:15 AM 83.3°F28.5°C 64.4°F18.0°C 53% Calm Calm -- 29.82 in1009.8 mb - 0.00 in0.0 mm 0.00 in0.0 mm
08:30 AM 84.0°F28.9°C 63.4°F17.4°C 50% Calm Calm -- 29.82 in1009.8 mb - 0.00 in0.0 mm 0.00 in0.0 mm
08:45 AM 84.6°F29.2°C 64.5°F18.1°C 51% Calm Calm 2.0 mph3.2 kmh 29.82 in1009.8 mb - 0.00 in0.0 mm 0.00 in0.0 mm
09:00 AM 84.7°F29.3°C 64.6°F18.1°C 51% 1.1 mph NNW1.8 kmh NNW 3.0 mph4.8 kmh 29.81 in1009.5 mb - 0.00 in0.0 mm 0.00 in0.0 mm
09:15 AM 84.8°F29.3°C 65.2°F18.4°C 52% Calm Calm 1.0 mph1.6 kmh 29.82 in1009.8 mb - 0.00 in0.0 mm 0.00 in0.0 mm
09:30 AM 84.3°F29.1°C 65.9°F18.8°C 54% Calm Calm 1.0 mph1.6 kmh 29.83 in1010.2 mb - 0.00 in0.0 mm 0.00 in0.0 mm
09:45 AM 83.8°F28.8°C 67.4°F19.7°C 58% 3.8 mph S6.1 kmh S 6.0 mph9.7 kmh 29.83 in1010.2 mb - 0.00 in0.0 mm 0.00 in0.0 mm
10:00 AM 83.8°F28.8°C 67.4°F19.7°C 58% 0.2 mph SE0.3 kmh SE 1.0 mph1.6 kmh 29.83 in1010.2 mb - 0.00 in0.0 mm 0.00 in0.0 mm
10:15 AM 84.0°F28.9°C 67.6°F19.8°C 58% 0.1 mph SW0.2 kmh SW 1.0 mph1.6 kmh 29.83 in1010.2 mb - 0.00 in0.0 mm 0.00 in0.0 mm
10:30 AM 85.1°F29.5°C 66.6°F19.2°C 54% Calm Calm -- 29.82 in1009.8 mb - 0.00 in0.0 mm 0.00 in0.0 mm
10:45 AM 85.6°F29.8°C 66.0°F18.9°C 52% 1.5 mph S2.4 kmh S 3.0 mph4.8 kmh 29.83 in1010.2 mb - 0.00 in0.0 mm 0.00 in0.0 mm
11:00 AM 86.5°F30.3°C 65.1°F18.4°C 49% 0.7 mph SE1.1 kmh SE 1.0 mph1.6 kmh 29.83 in1010.2 mb - 0.00 in0.0 mm 0.00 in0.0 mm
11:15 AM 86.4°F30.2°C 64.4°F18.0°C 48% 0.4 mph S0.6 kmh S 2.0 mph3.2 kmh 29.82 in1009.8 mb - 0.00 in0.0 mm 0.00 in0.0 mm
11:30 AM 87.9°F31.1°C 63.9°F17.7°C 45% 0.4 mph SE0.6 kmh SE 2.0 mph3.2 kmh 29.82 in1009.8 mb - 0.00 in0.0 mm 0.00 in0.0 mm
11:45 AM 87.8°F31.0°C 64.4°F18.0°C 46% 0.2 mph ESE0.3 kmh ESE 1.0 mph1.6 kmh 29.81 in1009.5 mb - 0.00 in0.0 mm 0.00 in0.0 mm
12:00 PM 88.6°F31.4°C 63.2°F17.3°C 43% 0.3 mph NE0.5 kmh NE 1.0 mph1.6 kmh 29.81 in1009.5 mb - 0.00 in0.0 mm 0.00 in0.0 mm
12:15 PM 89.4°F31.9°C 65.3°F18.5°C 45% 0.2 mph SE0.3 kmh SE 1.0 mph1.6 kmh 29.81 in1009.5 mb - 0.00 in0.0 mm 0.00 in0.0 mm
12:30 PM 89.2°F31.8°C 65.1°F18.4°C 45% 1.3 mph SE2.1 kmh SE 2.0 mph3.2 kmh 29.80 in1009.1 mb - 0.00 in0.0 mm 0.00 in0.0 mm
12:45 PM 89.5°F31.9°C 64.7°F18.2°C 44% 0.5 mph NNE0.8 kmh NNE 1.0 mph1.6 kmh 29.79 in1008.8 mb - 0.00 in0.0 mm 0.00 in0.0 mm
01:00 PM 89.0°F31.7°C 66.2°F19.0°C 47% 0.1 mph ESE0.2 kmh ESE 1.0 mph1.6 kmh 29.79 in1008.8 mb - 0.00 in0.0 mm 0.00 in0.0 mm
01:15 PM 89.1°F31.7°C 66.2°F19.0°C 47% 0.4 mph ESE0.6 kmh ESE 3.0 mph4.8 kmh 29.79 in1008.8 mb - 0.00 in0.0 mm 0.00 in0.0 mm
01:30 PM 90.0°F32.2°C 64.5°F18.1°C 43% 1.3 mph SE2.1 kmh SE 3.0 mph4.8 kmh 29.79 in1008.8 mb - 0.00 in0.0 mm 0.00 in0.0 mm
01:45 PM 91.3°F32.9°C 63.6°F17.6°C 40% 0.6 mph SSE1.0 kmh SSE 2.0 mph3.2 kmh 29.79 in1008.8 mb - 0.00 in0.0 mm 0.00 in0.0 mm
02:00 PM 92.7°F33.7°C 62.6°F17.0°C 37% 1.6 mph SE2.6 kmh SE 3.0 mph4.8 kmh 29.78 in1008.5 mb - 0.00 in0.0 mm 0.00 in0.0 mm
02:15 PM 92.4°F33.6°C 63.8°F17.7°C 39% 0.9 mph ESE1.4 kmh ESE 3.0 mph4.8 kmh 29.77 in1008.1 mb - 0.00 in0.0 mm 0.00 in0.0 mm
02:30 PM 93.9°F34.4°C 63.7°F17.6°C 37% 1.4 mph ESE2.3 kmh ESE 4.0 mph6.4 kmh 29.76 in1007.8 mb - 0.00 in0.0 mm 0.00 in0.0 mm
02:45 PM 93.9°F34.4°C 63.7°F17.6°C 37% 1.2 mph SE1.9 kmh SE 3.0 mph4.8 kmh 29.76 in1007.8 mb - 0.00 in0.0 mm 0.00 in0.0 mm
03:00 PM 94.6°F34.8°C 63.5°F17.5°C 36% 1.2 mph SE1.9 kmh SE 4.0 mph6.4 kmh 29.75 in1007.5 mb - 0.00 in0.0 mm 0.00 in0.0 mm
03:15 PM 95.3°F35.2°C 63.3°F17.4°C 35% 0.8 mph SE1.3 kmh SE 3.0 mph4.8 kmh 29.75 in1007.5 mb - 0.00 in0.0 mm 0.00 in0.0 mm
03:30 PM 95.1°F35.1°C 64.7°F18.2°C 37% 0.9 mph SE1.4 kmh SE 2.0 mph3.2 kmh 29.75 in1007.5 mb - 0.00 in0.0 mm 0.00 in0.0 mm
03:45 PM 95.5°F35.3°C 63.5°F17.5°C 35% 0.7 mph ESE1.1 kmh ESE 2.0 mph3.2 kmh 29.73 in1006.8 mb - 0.00 in0.0 mm 0.00 in0.0 mm
04:00 PM 95.1°F35.1°C 62.3°F16.8°C 34% 3.3 mph SE5.3 kmh SE 5.0 mph8.0 kmh 29.73 in1006.8 mb - 0.00 in0.0 mm 0.00 in0.0 mm
04:15 PM 94.4°F34.7°C 63.3°F17.4°C 36% 0.9 mph SE1.4 kmh SE 4.0 mph6.4 kmh 29.73 in1006.8 mb - 0.00 in0.0 mm 0.00 in0.0 mm
04:30 PM 95.3°F35.2°C 61.6°F16.4°C 33% 1.5 mph SE2.4 kmh SE 3.0 mph4.8 kmh 29.71 in1006.1 mb - 0.00 in0.0 mm 0.00 in0.0 mm
04:45 PM 95.3°F35.2°C 60.8°F16.0°C 32% 2.4 mph SE3.9 kmh SE 4.0 mph6.4 kmh 29.70 in1005.8 mb - 0.00 in0.0 mm 0.00 in0.0 mm
05:00 PM 96.1°F35.6°C 60.6°F15.9°C 31% 2.0 mph SE3.2 kmh SE 6.0 mph9.7 kmh 29.70 in1005.8 mb - 0.00 in0.0 mm 0.00 in0.0 mm
05:15 PM 95.3°F35.2°C 59.9°F15.5°C 31% 4.3 mph ESE6.9 kmh ESE 9.0 mph14.5 kmh 29.71 in1006.1 mb - 0.00 in0.0 mm 0.00 in0.0 mm
05:30 PM 94.2°F34.6°C 59.8°F15.4°C 32% 2.2 mph SE3.5 kmh SE 4.0 mph6.4 kmh 29.69 in1005.4 mb - 0.00 in0.0 mm 0.00 in0.0 mm
05:45 PM 94.6°F34.8°C 59.2°F15.1°C 31% 2.1 mph ESE3.4 kmh ESE 2.0 mph3.2 kmh 29.69 in1005.4 mb - 0.00 in0.0 mm 0.00 in0.0 mm
06:00 PM 93.6°F34.2°C 60.2°F15.7°C 33% 1.9 mph SE3.1 kmh SE 4.0 mph6.4 kmh 29.69 in1005.4 mb - 0.00 in0.0 mm 0.00 in0.0 mm
06:15 PM 93.1°F33.9°C 60.6°F15.9°C 34% 1.7 mph SE2.7 kmh SE 4.0 mph6.4 kmh 29.70 in1005.8 mb - 0.00 in0.0 mm 0.00 in0.0 mm
06:30 PM 93.4°F34.1°C 61.7°F16.5°C 35% 2.0 mph SE3.2 kmh SE 5.0 mph8.0 kmh 29.69 in1005.4 mb - 0.00 in0.0 mm 0.00 in0.0 mm
06:45 PM 93.1°F33.9°C 62.2°F16.8°C 36% 2.1 mph S3.4 kmh S 4.0 mph6.4 kmh 29.69 in1005.4 mb - 0.00 in0.0 mm 0.00 in0.0 mm
07:00 PM 92.4°F33.6°C 62.4°F16.9°C 37% 4.1 mph SSW6.6 kmh SSW 7.0 mph11.3 kmh 29.70 in1005.8 mb - 0.00 in0.0 mm 0.00 in0.0 mm
07:15 PM 91.8°F33.2°C 61.8°F16.6°C 37% 2.7 mph E4.3 kmh E 8.0 mph12.9 kmh 29.70 in1005.8 mb - 0.00 in0.0 mm 0.00 in0.0 mm
07:30 PM 91.1°F32.8°C 62.0°F16.7°C 38% 2.4 mph SSE3.9 kmh SSE 4.0 mph6.4 kmh 29.70 in1005.8 mb - 0.00 in0.0 mm 0.00 in0.0 mm
07:45 PM 90.3°F32.4°C 63.4°F17.4°C 41% 2.7 mph ESE4.3 kmh ESE 4.0 mph6.4 kmh 29.71 in1006.1 mb - 0.00 in0.0 mm 0.00 in0.0 mm
08:00 PM 89.5°F31.9°C 63.4°F17.4°C 42% 2.8 mph SSE4.5 kmh SSE 4.0 mph6.4 kmh 29.71 in1006.1 mb - 0.00 in0.0 mm 0.00 in0.0 mm
08:15 PM 89.0°F31.7°C 63.6°F17.6°C 43% 0.5 mph SSE0.8 kmh SSE 1.0 mph1.6 kmh 29.71 in1006.1 mb - 0.00 in0.0 mm 0.00 in0.0 mm
08:30 PM 88.9°F31.6°C 63.5°F17.5°C 43% 0.6 mph ESE1.0 kmh ESE 2.0 mph3.2 kmh 29.72 in1006.4 mb - 0.00 in0.0 mm 0.00 in0.0 mm
08:45 PM 88.5°F31.4°C 63.1°F17.3°C 43% 1.1 mph SW1.8 kmh SW 4.0 mph6.4 kmh 29.73 in1006.8 mb - 0.00 in0.0 mm 0.00 in0.0 mm
09:00 PM 88.3°F31.3°C 63.6°F17.6°C 44% 1.8 mph SW2.9 kmh SW 3.0 mph4.8 kmh 29.73 in1006.8 mb - 0.00 in0.0 mm 0.00 in0.0 mm
09:15 PM 88.1°F31.2°C 63.4°F17.4°C 44% 0.7 mph SSW1.1 kmh SSW 2.0 mph3.2 kmh 29.74 in1007.1 mb - 0.00 in0.0 mm 0.00 in0.0 mm
09:30 PM 87.7°F30.9°C 63.7°F17.6°C 45% Calm Calm -- 29.75 in1007.5 mb - 0.00 in0.0 mm 0.00 in0.0 mm
09:45 PM 87.6°F30.9°C 63.6°F17.6°C 45% Calm Calm 1.0 mph1.6 kmh 29.76 in1007.8 mb - 0.00 in0.0 mm 0.00 in0.0 mm
10:00 PM 87.4°F30.8°C 64.0°F17.8°C 46% Calm Calm -- 29.76 in1007.8 mb - 0.00 in0.0 mm 0.00 in0.0 mm
10:15 PM 87.2°F30.7°C 63.9°F17.7°C 46% 0.8 mph S1.3 kmh S 2.0 mph3.2 kmh 29.77 in1008.1 mb - 0.00 in0.0 mm 0.00 in0.0 mm
10:30 PM 87.1°F30.6°C 64.4°F18.0°C 47% Calm Calm -- 29.76 in1007.8 mb - 0.00 in0.0 mm 0.00 in0.0 mm
10:45 PM 87.0°F30.6°C 64.3°F17.9°C 47% Calm Calm -- 29.76 in1007.8 mb - 0.00 in0.0 mm 0.00 in0.0 mm
11:00 PM 87.0°F30.6°C 64.3°F17.9°C 47% Calm Calm 1.0 mph1.6 kmh 29.76 in1007.8 mb - 0.00 in0.0 mm 0.00 in0.0 mm
11:15 PM 87.0°F30.6°C 64.3°F17.9°C 47% 0.4 mph SSE0.6 kmh SSE 1.0 mph1.6 kmh 29.76 in1007.8 mb - 0.00 in0.0 mm 0.00 in0.0 mm
11:30 PM 86.8°F30.4°C 64.8°F18.2°C 48% 0.1 mph SSW0.2 kmh SSW 1.0 mph1.6 kmh 29.76 in1007.8 mb - 0.00 in0.0 mm 0.00 in0.0 mm
11:45 PM 86.7°F30.4°C 64.7°F18.2°C 48% 0.4 mph SE0.6 kmh SE 2.0 mph3.2 kmh 29.76 in1007.8 mb - 0.00 in0.0 mm 0.00 in0.0 mm